Time;durP1;ratioP1;P1;durP2;ratioP2;P2;SDS_P1;SDS_P2;PMS_P1;PMS_P2;Temp;Humidity;BMP_temperature;BMP_pressure;BME280_temperature;BME280_humidity;BME280_pressure;Samples;Min_cycle;Max_cycle;Signal;HPM_P1;HPM_P2
2022/10/29 00:01:34;;;;;;;;;16.00;13.00;;;;;20.25;60.83;101420.47;5074346;27;66891;-50
2022/10/29 00:03:59;;;;;;;;;11.00;11.00;;;;;20.25;60.51;101415.13;5072926;28;62727;-51
2022/10/29 00:06:25;;;;;;;;;16.00;12.00;;;;;20.28;60.34;101412.31;5075350;28;45383;-49
2022/10/29 00:08:50;;;;;;;;;16.00;13.00;;;;;20.26;60.68;101411.56;5077166;27;46956;-47
2022/10/29 00:11:18;;;;;;;;;15.50;12.00;;;;;20.27;60.31;101413.25;5072735;27;70198;-46
2022/10/29 00:13:43;;;;;;;;;19.75;12.75;;;;;20.26;60.95;101411.56;5075346;27;45254;-47
2022/10/29 00:16:12;;;;;;;;;16.25;12.75;;;;;20.26;60.82;101404.44;5073148;27;46124;-47
2022/10/29 00:18:37;;;;;;;;;14.75;13.00;;;;;20.27;60.75;101381.34;5073827;27;46205;-52
2022/10/29 00:21:04;;;;;;;;;14.25;11.00;;;;;20.29;60.66;101388.31;5067521;27;45417;-51
2022/10/29 00:23:30;;;;;;;;;13.00;10.00;;;;;20.29;60.54;101375.03;5080840;27;45318;-51
2022/10/29 00:25:57;;;;;;;;;16.75;13.00;;;;;20.28;60.28;101365.31;5074539;27;69926;-47
2022/10/29 00:28:22;;;;;;;;;11.75;11.25;;;;;20.28;60.61;101372.44;5074245;27;45327;-47
2022/10/29 00:30:47;;;;;;;;;14.75;11.00;;;;;20.25;60.17;101373.47;5077863;27;57448;-49
2022/10/29 00:33:14;;;;;;;;;14.50;13.00;;;;;20.22;60.19;101365.69;5074561;27;64779;-49
2022/10/29 00:35:40;;;;;;;;;16.75;12.75;;;;;20.23;60.25;101370.03;5085560;27;45622;-47
2022/10/29 00:38:05;;;;;;;;;18.25;11.75;;;;;20.22;60.30;101367.47;5073151;27;71366;-50
2022/10/29 00:40:35;;;;;;;;;13.75;11.00;;;;;20.24;60.21;101373.56;5085590;27;50987;-50
2022/10/29 00:43:14;;;;;;;;;16.25;14.25;;;;;20.24;60.40;101357.63;5067744;28;45457;-50
2022/10/29 00:45:43;;;;;;;;;15.75;12.50;;;;;20.22;60.46;101356.84;5063563;27;45499;-46
2022/10/29 00:48:09;;;;;;;;;18.25;13.00;;;;;20.22;60.50;101349.75;5062833;27;46625;-48
2022/10/29 00:50:34;;;;;;;;;15.25;12.50;;;;;20.22;60.00;101359.50;5063992;27;57303;-47
2022/10/29 00:53:00;;;;;;;;;12.50;10.50;;;;;20.22;60.25;101355.06;5067160;28;45335;-47
2022/10/29 00:55:25;;;;;;;;;14.50;11.00;;;;;20.22;59.96;101346.19;5063583;28;67337;-48
2022/10/29 00:57:53;;;;;;;;;16.00;12.25;;;;;20.19;60.27;101335.78;5079214;27;45953;-47
2022/10/29 01:00:20;;;;;;;;;14.25;12.00;;;;;20.15;60.44;101336.88;5072341;27;45460;-47
2022/10/29 01:02:45;;;;;;;;;20.75;13.75;;;;;20.14;60.41;101344.00;5072780;27;45245;-47
2022/10/29 01:05:13;;;;;;;;;15.25;11.25;;;;;20.14;60.20;101341.34;5063030;27;45343;-52
2022/10/29 01:07:39;;;;;;;;;11.50;11.50;;;;;20.16;60.24;101330.63;5071792;27;46122;-52
2022/10/29 01:10:04;;;;;;;;;20.00;12.25;;;;;20.14;60.51;101308.59;5075655;27;62727;-46
2022/10/29 01:12:56;;;;;;;;;12.50;9.00;;;;;20.10;60.44;101318.56;5070665;28;45390;-50
2022/10/29 01:15:24;;;;;;;;;18.25;10.75;;;;;20.05;59.96;101321.47;5065930;27;46624;-52
2022/10/29 01:18:12;;;;;;;;;15.00;12.75;;;;;20.01;60.72;101309.31;5073839;28;46514;-47
2022/10/29 01:20:56;;;;;;;;;16.00;11.25;;;;;19.99;60.18;101302.38;5070131;28;45448;-50
2022/10/29 01:23:34;;;;;;;;;17.50;13.75;;;;;19.94;60.43;101300.00;5071419;27;45253;-47
2022/10/29 01:25:59;;;;;;;;;20.75;14.00;;;;;19.95;60.31;101304.34;5071274;27;45354;-51
2022/10/29 01:28:59;;;;;;;;;12.67;11.67;;;;;19.95;60.31;101290.22;5079815;28;47539;-58
2022/10/29 01:31:35;;;;;;;;;16.75;12.00;;;;;19.93;60.41;101306.22;5070441;27;45538;-51
2022/10/29 01:34:09;;;;;;;;;11.00;11.00;;;;;19.86;60.49;101300.41;5073130;28;45939;-52
2022/10/29 01:36:42;;;;;;;;;19.50;15.25;;;;;19.84;60.45;101293.47;5073377;27;45429;-53
2022/10/29 01:39:17;;;;;;;;;17.50;12.00;;;;;19.84;60.11;101289.00;5073920;27;46026;-52
2022/10/29 01:42:06;;;;;;;;;14.25;12.00;;;;;19.84;60.50;101293.47;5068925;27;45629;-51
2022/10/29 01:44:50;;;;;;;;;15.25;12.00;;;;;19.82;60.66;101282.09;5067724;28;45476;-51
2022/10/29 01:47:18;;;;;;;;;10.25;10.00;;;;;19.83;59.86;101279.34;5083855;27;45459;-51
2022/10/29 01:49:47;;;;;;;;;12.25;10.00;;;;;19.80;59.86;101279.53;5089715;27;47082;-49
2022/10/29 01:52:14;;;;;;;;;13.00;10.50;;;;;19.79;60.13;101261.84;5064766;28;45608;-50
2022/10/29 01:54:44;;;;;;;;;14.75;9.50;;;;;19.75;60.21;101247.06;5074918;27;45306;-52
2022/10/29 01:57:42;;;;;;;;;13.50;12.00;;;;;19.68;60.15;101246.50;5071449;27;45504;-50
2022/10/29 02:00:28;;;;;;;;;12.25;10.50;;;;;19.62;59.96;101233.59;5062463;27;46520;-49
2022/10/29 02:03:06;;;;;;;;;15.00;10.25;;;;;19.58;60.40;101247.97;5069644;28;45770;-51
2022/10/29 02:05:37;;;;;;;;;13.00;10.00;;;;;19.57;60.08;101246.28;5070843;28;45598;-49
2022/10/29 02:08:25;;;;;;;;;15.00;11.50;;;;;19.57;60.16;101235.66;5068484;27;45499;-49
2022/10/29 02:10:57;;;;;;;;;11.00;10.00;;;;;19.57;60.18;101224.19;5073169;28;47160;-50
2022/10/29 02:13:29;;;;;;;;;17.25;14.00;;;;;19.56;60.26;101219.81;5066071;28;45375;-51
2022/10/29 02:15:56;;;;;;;;;12.00;10.75;;;;;19.54;60.04;101212.78;5071604;27;45372;-51
2022/10/29 02:18:21;;;;;;;;;14.25;12.50;;;;;19.54;60.22;101215.44;5077949;27;45352;-52
2022/10/29 02:20:46;;;;;;;;;12.75;11.00;;;;;19.51;60.21;101204.13;5064277;28;66625;-51
2022/10/29 02:23:13;;;;;;;;;15.25;11.50;;;;;19.57;59.89;101208.25;5076618;27;68425;-51
2022/10/29 02:25:38;;;;;;;;;13.25;12.00;;;;;19.57;59.79;101205.59;5071758;27;49531;-52
2022/10/29 02:28:04;;;;;;;;;18.75;11.75;;;;;19.59;59.74;101212.53;5075526;28;53773;-50
2022/10/29 02:30:29;;;;;;;;;13.00;10.50;;;;;19.61;60.02;101207.13;5069507;28;46768;-52
2022/10/29 02:32:54;;;;;;;;;13.25;10.50;;;;;19.66;59.65;101207.72;5071102;27;47624;-50
2022/10/29 02:35:20;;;;;;;;;13.00;10.00;;;;;19.68;59.88;101198.72;5064704;28;59967;-49
2022/10/29 02:37:45;;;;;;;;;17.00;10.75;;;;;19.70;59.69;101199.47;5067445;27;68923;-52
2022/10/29 02:40:11;;;;;;;;;15.00;12.00;;;;;19.72;59.59;101194.06;5072487;27;45340;-51
2022/10/29 02:42:37;;;;;;;;;14.00;11.25;;;;;19.72;59.52;101191.44;5062605;27;45259;-51
2022/10/29 02:45:03;;;;;;;;;13.00;10.00;;;;;19.73;59.59;101190.50;5077375;28;63782;-49
2022/10/29 02:47:28;;;;;;;;;15.75;11.75;;;;;19.77;59.64;101185.88;5065403;28;45255;-48
2022/10/29 02:49:54;;;;;;;;;12.00;10.25;;;;;19.77;59.61;101186.75;5063356;27;50098;-51
2022/10/29 02:52:19;;;;;;;;;13.25;11.25;;;;;19.79;59.31;101190.16;5071063;27;45423;-51
2022/10/29 02:54:44;;;;;;;;;11.50;10.25;;;;;19.80;59.62;101188.38;5073384;27;45791;-50
2022/10/29 02:57:10;;;;;;;;;12.50;10.25;;;;;19.80;59.29;101183.06;5075209;28;45391;-46
2022/10/29 02:59:35;;;;;;;;;15.00;11.25;;;;;19.79;59.37;101182.19;5069832;27;72990;-46
2022/10/29 03:02:00;;;;;;;;;14.00;10.00;;;;;19.78;59.18;101180.50;5063044;28;73178;-47
2022/10/29 03:04:26;;;;;;;;;14.50;10.25;;;;;19.77;59.11;101177.94;5074071;27;65598;-46
2022/10/29 03:06:51;;;;;;;;;15.00;11.75;;;;;19.73;59.48;101172.78;5069838;27;45283;-46
2022/10/29 03:09:16;;;;;;;;;15.75;9.25;;;;;19.68;59.17;101158.03;5077713;27;66802;-46
2022/10/29 03:11:42;;;;;;;;;12.00;10.50;;;;;19.68;59.44;101166.84;5063069;27;72948;-49
2022/10/29 03:14:07;;;;;;;;;13.00;10.75;;;;;19.70;59.31;101161.47;5063184;28;45352;-50
2022/10/29 03:16:32;;;;;;;;;12.50;11.00;;;;;19.70;59.29;101166.75;5083706;27;45584;-51
2022/10/29 03:18:58;;;;;;;;;11.50;10.00;;;;;19.68;59.07;101160.69;5077713;27;67119;-52
2022/10/29 03:21:23;;;;;;;;;13.50;10.75;;;;;19.63;59.23;101158.28;5076724;27;65014;-46
2022/10/29 03:23:48;;;;;;;;;17.25;13.00;;;;;19.60;59.34;101153.19;5079990;27;69549;-51
2022/10/29 03:26:14;;;;;;;;;12.50;12.25;;;;;19.57;59.00;101163.97;5063898;27;59563;-51
2022/10/29 03:28:39;;;;;;;;;9.50;8.75;;;;;19.56;59.16;101164.06;5074254;27;59170;-48
2022/10/29 03:31:04;;;;;;;;;19.00;11.00;;;;;19.58;58.93;101159.50;5069859;27;69505;-45
2022/10/29 03:33:30;;;;;;;;;14.75;10.00;;;;;19.59;59.15;101161.25;5073246;27;61745;-46
2022/10/29 03:35:59;;;;;;;;;14.00;9.00;;;;;19.60;59.63;101168.25;5080734;27;45895;-46
2022/10/29 03:38:24;;;;;;;;;12.50;10.25;;;;;19.58;59.30;101178.94;5072899;27;46355;-46
2022/10/29 03:40:49;;;;;;;;;12.00;9.00;;;;;19.62;59.12;101169.88;5073336;27;45413;-46
2022/10/29 03:43:15;;;;;;;;;12.75;6.00;;;;;19.63;59.17;101168.06;5076446;27;68135;-46
2022/10/29 03:45:40;;;;;;;;;10.75;9.75;;;;;19.64;59.10;101170.63;5078943;28;73156;-46
2022/10/29 03:48:05;;;;;;;;;12.50;10.25;;;;;19.64;58.77;101175.94;5070685;27;72513;-49
2022/10/29 03:50:31;;;;;;;;;11.25;10.25;;;;;19.65;58.93;101161.72;5066848;27;45582;-49
2022/10/29 03:52:56;;;;;;;;;11.50;9.75;;;;;19.66;59.06;101160.78;5073842;27;45681;-46
2022/10/29 03:55:21;;;;;;;;;15.00;12.00;;;;;19.66;58.94;101160.78;5071936;27;47877;-48
2022/10/29 03:57:47;;;;;;;;;8.00;6.25;;;;;19.67;58.60;101165.16;5076490;27;69567;-47
2022/10/29 04:00:13;;;;;;;;;13.50;10.50;;;;;19.67;58.75;101153.66;5074313;27;46888;-46
2022/10/29 04:02:38;;;;;;;;;16.00;11.75;;;;;19.67;59.08;101137.72;5071053;28;47139;-47
2022/10/29 04:05:04;;;;;;;;;14.25;9.75;;;;;19.67;58.99;101132.41;5073415;27;45665;-46
2022/10/29 04:07:29;;;;;;;;;12.00;10.25;;;;;19.63;59.08;101139.72;5072669;28;46847;-46
2022/10/29 04:09:54;;;;;;;;;14.00;11.00;;;;;19.63;58.62;101147.69;5076846;27;71231;-46
2022/10/29 04:12:20;;;;;;;;;16.00;11.50;;;;;19.64;59.33;101156.53;5071601;28;45287;-45
2022/10/29 04:14:45;;;;;;;;;16.50;13.00;;;;;19.64;58.78;101159.19;5071460;27;45442;-46
2022/10/29 04:17:11;;;;;;;;;14.75;10.00;;;;;19.62;58.57;101174.31;5079099;27;46128;-46
2022/10/29 04:19:36;;;;;;;;;14.50;11.50;;;;;19.60;59.06;101168.25;5063504;27;45492;-49
2022/10/29 04:22:01;;;;;;;;;14.25;10.25;;;;;19.59;58.74;101161.25;5080147;27;67519;-47
2022/10/29 04:24:27;;;;;;;;;11.25;9.00;;;;;19.61;58.61;101175.28;5065184;28;70561;-47
2022/10/29 04:26:52;;;;;;;;;9.50;9.50;;;;;19.61;58.67;101167.31;5070974;28;45890;-47
2022/10/29 04:29:17;;;;;;;;;13.00;9.50;;;;;19.62;58.76;101177.84;5068919;27;71148;-49
2022/10/29 04:31:43;;;;;;;;;14.50;11.00;;;;;19.62;58.93;101171.66;5062615;27;65209;-50
2022/10/29 04:34:08;;;;;;;;;11.75;9.25;;;;;19.61;58.61;101159.34;5075182;27;45487;-46
2022/10/29 04:36:33;;;;;;;;;13.00;10.25;;;;;19.60;58.47;101153.19;5070349;27;45343;-52
2022/10/29 04:38:59;;;;;;;;;14.75;8.50;;;;;19.61;58.30;101156.69;5066806;27;62576;-50
2022/10/29 04:41:24;;;;;;;;;12.50;10.50;;;;;19.63;58.68;101152.13;5075381;27;45204;-51
2022/10/29 04:43:49;;;;;;;;;15.75;10.50;;;;;19.62;58.42;101145.09;5074642;27;48041;-46
2022/10/29 04:46:14;;;;;;;;;13.75;10.75;;;;;19.60;58.34;101137.25;5073948;28;75565;-45
2022/10/29 04:48:40;;;;;;;;;11.75;9.50;;;;;19.59;58.63;101151.47;5070445;27;71620;-47
2022/10/29 04:51:05;;;;;;;;;12.00;9.25;;;;;19.59;58.28;101146.16;5074911;27;62519;-46
2022/10/29 04:53:31;;;;;;;;;13.25;10.50;;;;;19.59;58.38;101143.50;5074857;28;45479;-46
2022/10/29 04:56:00;;;;;;;;;10.00;10.00;;;;;19.60;58.51;101139.91;5078359;28;74646;-46
2022/10/29 04:58:26;;;;;;;;;13.75;9.00;;;;;19.60;58.33;101137.25;5081845;27;45773;-47
2022/10/29 05:00:52;;;;;;;;;11.00;9.00;;;;;19.61;58.31;101132.78;5075690;27;45308;-47
2022/10/29 05:03:17;;;;;;;;;11.75;10.25;;;;;19.61;58.80;101124.81;5079505;28;47870;-47
2022/10/29 05:05:42;;;;;;;;;12.75;10.00;;;;;19.63;58.35;101130.91;5084538;27;74495;-47
2022/10/29 05:08:08;;;;;;;;;12.00;10.00;;;;;19.63;58.22;101131.75;5092490;27;45200;-46
2022/10/29 05:10:36;;;;;;;;;12.25;10.25;;;;;19.63;58.63;101128.25;5066176;27;45415;-46
2022/10/29 05:13:07;;;;;;;;;13.00;9.75;;;;;19.66;58.19;101133.38;5074381;27;45491;-45
2022/10/29 05:15:33;;;;;;;;;10.50;10.00;;;;;19.65;58.07;101126.34;5088579;27;46208;-47
2022/10/29 05:17:58;;;;;;;;;15.00;10.00;;;;;19.64;58.46;101133.47;5068550;27;45411;-49
2022/10/29 05:20:25;;;;;;;;;13.50;11.00;;;;;19.63;58.45;101123.78;5068764;27;45422;-51
2022/10/29 05:22:59;;;;;;;;;13.75;12.75;;;;;19.62;58.18;101123.88;5080058;27;45202;-51
2022/10/29 05:25:25;;;;;;;;;14.00;13.25;;;;;19.64;58.27;101122.00;5080253;28;46449;-51
2022/10/29 05:28:00;;;;;;;;;16.00;12.50;;;;;19.64;58.44;101122.84;5078046;28;45504;-46
2022/10/29 05:30:25;;;;;;;;;20.25;17.00;;;;;19.65;57.84;101121.03;5073851;27;45252;-47
2022/10/29 05:32:51;;;;;;;;;17.50;16.00;;;;;19.62;58.35;101119.44;5073729;27;45472;-46
2022/10/29 05:35:16;;;;;;;;;9.50;7.00;;;;;19.63;58.31;101107.00;5066789;28;61077;-52
2022/10/29 05:37:41;;;;;;;;;13.25;10.50;;;;;19.60;58.16;101102.75;5076081;27;45394;-48
2022/10/29 05:40:07;;;;;;;;;14.50;10.25;;;;;19.57;58.42;101104.72;5073019;27;51169;-48
2022/10/29 05:42:36;;;;;;;;;12.75;8.25;;;;;19.48;57.87;101104.31;5067532;28;45301;-47
2022/10/29 05:45:02;;;;;;;;;11.00;8.00;;;;;19.42;57.98;101093.19;5072197;27;45469;-47
2022/10/29 05:47:27;;;;;;;;;14.50;10.00;;;;;19.36;58.22;101083.78;5074256;28;45253;-47
2022/10/29 05:49:52;;;;;;;;;8.75;7.75;;;;;19.33;58.57;101090.13;5064617;27;67167;-46
2022/10/29 05:52:18;;;;;;;;;16.25;10.00;;;;;19.31;58.27;101089.34;5068874;28;62911;-46
2022/10/29 05:54:43;;;;;;;;;13.50;9.50;;;;;19.31;58.36;101092.00;5074942;27;67765;-45
2022/10/29 05:57:08;;;;;;;;;13.50;11.25;;;;;19.31;58.31;101097.31;5074929;27;64471;-46
2022/10/29 05:59:34;;;;;;;;;11.75;9.00;;;;;19.30;58.42;101094.75;5067209;27;67286;-47
2022/10/29 06:01:59;;;;;;;;;12.50;10.00;;;;;19.29;58.49;101093.91;5065348;27;63642;-49
2022/10/29 06:04:24;;;;;;;;;12.75;9.00;;;;;19.30;58.42;101097.41;5074913;28;75853;-47
2022/10/29 06:06:49;;;;;;;;;11.75;10.00;;;;;19.30;58.42;101089.44;5068001;28;69779;-46
2022/10/29 06:09:15;;;;;;;;;14.25;11.25;;;;;19.28;58.00;101084.25;5076680;28;57972;-46
2022/10/29 06:11:40;;;;;;;;;18.00;9.75;;;;;19.27;58.36;101082.53;5083674;27;66029;-47
2022/10/29 06:14:05;;;;;;;;;13.25;11.00;;;;;19.27;58.30;101076.38;5072526;27;64916;-48
2022/10/29 06:16:31;;;;;;;;;12.50;10.00;;;;;19.24;58.17;101073.88;5076047;27;45364;-47
2022/10/29 06:18:56;;;;;;;;;12.50;7.25;;;;;19.19;58.26;101074.13;5080610;27;45411;-47
2022/10/29 06:21:21;;;;;;;;;15.75;10.50;;;;;19.17;58.47;101076.03;5072905;28;74146;-47
2022/10/29 06:23:47;;;;;;;;;11.00;10.50;;;;;19.17;58.40;101073.38;5065833;28;74447;-47
2022/10/29 06:26:12;;;;;;;;;8.00;8.00;;;;;19.20;58.02;101067.06;5067960;27;45345;-46
2022/10/29 06:28:37;;;;;;;;;14.50;10.00;;;;;19.22;58.39;101071.31;5076535;27;46392;-47
2022/10/29 06:31:03;;;;;;;;;16.50;12.00;;;;;19.25;58.25;101070.31;5077655;27;45370;-46
2022/10/29 06:33:28;;;;;;;;;14.50;11.00;;;;;19.27;58.01;101077.22;5069719;28;59181;-50
2022/10/29 06:35:58;;;;;;;;;10.75;8.50;;;;;19.28;58.21;101084.25;5069228;28;45412;-48
2022/10/29 06:38:24;;;;;;;;;13.25;11.50;;;;;19.30;57.95;101087.66;5096499;27;45271;-50
2022/10/29 06:40:52;;;;;;;;;12.25;10.00;;;;;19.32;58.22;101100.84;5077592;27;62976;-46
2022/10/29 06:43:18;;;;;;;;;15.00;9.75;;;;;19.35;58.01;101103.28;5080265;27;46084;-48
2022/10/29 06:45:43;;;;;;;;;11.25;8.75;;;;;19.37;58.25;101101.44;5064100;27;59259;-50
2022/10/29 06:48:08;;;;;;;;;15.25;11.00;;;;;19.38;57.66;101089.84;5062258;28;45405;-48
2022/10/29 06:50:34;;;;;;;;;14.75;10.75;;;;;19.40;57.78;101087.13;5068070;28;49437;-46
2022/10/29 06:53:02;;;;;;;;;15.00;10.75;;;;;19.41;57.76;101105.63;5067738;28;47124;-47
2022/10/29 06:55:28;;;;;;;;;12.75;11.75;;;;;19.43;57.81;101098.41;5055334;28;45641;-47
2022/10/29 06:57:57;;;;;;;;;13.75;11.25;;;;;19.45;57.76;101111.59;5075430;27;45216;-48
2022/10/29 07:00:23;;;;;;;;;14.50;12.00;;;;;19.46;57.75;101108.84;5077445;27;45484;-47
2022/10/29 07:02:49;;;;;;;;;14.25;11.00;;;;;19.46;57.56;101103.53;5069444;27;45492;-47
2022/10/29 07:05:14;;;;;;;;;13.75;10.75;;;;;19.49;57.34;101105.16;5072136;27;66334;-49
2022/10/29 07:07:39;;;;;;;;;13.00;11.50;;;;;19.49;57.62;101098.03;5077336;28;45438;-47
2022/10/29 07:10:05;;;;;;;;;14.75;11.50;;;;;19.50;57.49;101098.91;5075043;27;57877;-47
2022/10/29 07:12:30;;;;;;;;;12.50;10.25;;;;;19.51;57.66;101096.19;5066328;28;46963;-47
2022/10/29 07:14:55;;;;;;;;;14.50;12.75;;;;;19.52;57.79;101087.25;5071497;27;68859;-47
2022/10/29 07:17:21;;;;;;;;;13.00;10.00;;;;;19.51;57.80;101076.72;5074639;28;66734;-47
2022/10/29 07:19:46;;;;;;;;;16.50;10.75;;;;;19.51;57.76;101092.63;5069789;28;73605;-47
2022/10/29 07:22:11;;;;;;;;;18.50;13.00;;;;;19.50;57.85;101080.34;5073767;27;68753;-47
2022/10/29 07:24:37;;;;;;;;;14.75;11.00;;;;;19.47;57.60;101084.00;5076527;28;67189;-48
2022/10/29 07:27:02;;;;;;;;;15.50;10.25;;;;;19.46;57.23;101092.06;5071653;28;55857;-48
2022/10/29 07:29:27;;;;;;;;;14.50;10.25;;;;;19.44;57.58;101083.31;5075025;27;45239;-49
2022/10/29 07:31:53;;;;;;;;;12.00;10.50;;;;;19.44;57.46;101080.69;5074761;28;48608;-48
2022/10/29 07:34:18;;;;;;;;;8.25;8.00;;;;;19.43;57.37;101076.34;5068270;28;63372;-46
2022/10/29 07:36:43;;;;;;;;;15.75;9.25;;;;;19.43;57.11;101073.69;5068813;27;47901;-47
2022/10/29 07:39:09;;;;;;;;;11.75;10.75;;;;;19.40;57.44;101080.00;5067326;27;62950;-48
2022/10/29 07:41:34;;;;;;;;;14.75;9.50;;;;;19.40;57.14;101073.84;5067725;27;45431;-50
2022/10/29 07:43:59;;;;;;;;;11.50;8.75;;;;;19.38;57.63;101073.94;5070961;28;73293;-46
2022/10/29 07:46:24;;;;;;;;;8.00;8.00;;;;;19.40;57.49;101069.38;5074251;28;68190;-46
2022/10/29 07:48:50;;;;;;;;;13.00;9.75;;;;;19.41;57.23;101068.44;5075932;27;66745;-45
2022/10/29 07:51:15;;;;;;;;;12.50;12.00;;;;;19.40;57.28;101063.22;5070481;28;58084;-46
2022/10/29 07:53:40;;;;;;;;;11.25;10.25;;;;;19.43;57.22;101068.38;5070926;28;58468;-50
2022/10/29 07:56:06;;;;;;;;;18.75;11.00;;;;;19.45;57.36;101069.97;5069268;27;68183;-45
2022/10/29 07:58:31;;;;;;;;;12.25;10.00;;;;;19.48;57.15;101072.47;5070886;27;45443;-46
2022/10/29 08:00:58;;;;;;;;;13.75;11.00;;;;;19.50;56.94;101073.22;5075451;28;56661;-52
2022/10/29 08:03:23;;;;;;;;;18.00;12.00;;;;;19.54;57.12;101085.34;5072521;28;45483;-47
2022/10/29 08:05:49;;;;;;;;;12.00;10.25;;;;;19.57;57.12;101092.28;5072116;27;45904;-48
2022/10/29 08:08:16;;;;;;;;;11.75;11.00;;;;;19.59;57.24;101090.41;5070179;28;45442;-51
2022/10/29 08:10:41;;;;;;;;;10.75;9.25;;;;;19.61;56.62;101104.44;5078312;27;45289;-47
2022/10/29 08:13:07;;;;;;;;;16.25;11.00;;;;;19.64;57.02;101098.09;5070497;27;45394;-47
2022/10/29 08:15:33;;;;;;;;;12.25;10.25;;;;;19.67;57.05;101111.19;5079886;28;45355;-52
2022/10/29 08:18:00;;;;;;;;;14.75;11.50;;;;;19.69;56.51;101107.50;5077145;28;45406;-51
2022/10/29 08:20:27;;;;;;;;;16.00;10.50;;;;;19.72;57.06;101109.09;5063688;27;46548;-47
2022/10/29 08:22:52;;;;;;;;;14.50;10.75;;;;;19.72;56.53;101107.31;5069816;28;45809;-48
2022/10/29 08:25:18;;;;;;;;;17.25;12.25;;;;;19.75;56.79;101114.28;5073719;28;56395;-48
2022/10/29 08:27:44;;;;;;;;;17.25;12.75;;;;;19.80;56.74;101111.34;5069778;28;45560;-48
2022/10/29 08:30:11;;;;;;;;;16.00;12.00;;;;;19.82;56.31;101109.47;5073226;28;46326;-49
2022/10/29 08:32:43;;;;;;;;;17.50;13.50;;;;;19.84;56.45;101108.41;5078625;27;45246;-45
2022/10/29 08:35:10;;;;;;;;;14.50;12.00;;;;;19.87;56.51;101110.88;5072950;27;45568;-45
2022/10/29 08:37:40;;;;;;;;;15.25;11.75;;;;;19.92;56.21;101113.28;5076682;28;45629;-47
2022/10/29 08:40:08;;;;;;;;;17.25;11.75;;;;;19.95;56.02;101109.56;5080227;27;45445;-46
2022/10/29 08:42:41;;;;;;;;;15.25;12.00;;;;;19.98;56.13;101107.56;5071252;28;45380;-50
2022/10/29 08:45:18;;;;;;;;;14.00;11.00;;;;;20.00;55.93;101100.38;5067340;27;45624;-54
2022/10/29 08:48:08;;;;;;;;;13.00;12.00;;;;;20.01;56.12;101101.22;5077296;27;45534;-54
2022/10/29 08:50:39;;;;;;;;;15.75;12.00;;;;;19.98;55.57;101104.06;5067465;28;46218;-56
2022/10/29 08:53:14;;;;;;;;;15.50;13.25;;;;;20.03;55.82;101097.53;5078729;27;45315;-57
2022/10/29 08:55:39;;;;;;;;;17.75;12.50;;;;;20.06;55.61;101096.47;5076005;28;45492;-57
2022/10/29 08:58:23;;;;;;;;;16.25;13.25;;;;;20.10;55.81;101092.69;5080152;27;45316;-60
2022/10/29 09:00:53;;;;;;;;;16.00;14.00;;;;;20.14;55.38;101091.56;5071120;27;46229;-50
2022/10/29 09:03:18;;;;;;;;;16.00;13.50;;;;;20.17;55.37;101094.03;5066606;27;45263;-49
2022/10/29 09:06:10;;;;;;;;;14.00;13.00;;;;;20.21;55.61;101084.06;5068284;27;66008;-49
2022/10/29 09:08:49;;;;;;;;;26.25;17.75;;;;;20.25;55.30;101089.06;5071876;27;45357;-49
2022/10/29 09:11:32;;;;;;;;;23.50;16.00;;;;;20.30;55.69;101087.00;5074568;28;45323;-48
2022/10/29 09:14:16;;;;;;;;;14.50;11.00;;;;;20.36;55.07;101103.50;5065630;27;45695;-50
2022/10/29 09:17:03;;;;;;;;;16.00;11.25;;;;;20.40;55.02;101107.72;5050619;28;45434;-58
2022/10/29 09:20:12;;;;;;;;;13.75;11.75;;;;;20.43;54.70;101100.41;5068102;27;45768;-59
2022/10/29 09:22:44;;;;;;;;;18.75;14.00;;;;;20.47;54.88;101107.22;5047727;28;46482;-59
2022/10/29 09:25:22;;;;;;;;;13.50;11.00;;;;;20.50;54.62;101111.47;5080903;27;46160;-56
2022/10/29 09:28:09;;;;;;;;;16.50;11.50;;;;;20.54;54.96;101107.69;5069528;28;45512;-54
2022/10/29 09:31:03;;;;;;;;;14.75;11.75;;;;;20.58;54.36;101098.56;5066651;27;45498;-54
2022/10/29 09:33:29;;;;;;;;;11.25;11.25;;;;;20.62;54.89;101094.78;5072328;27;46293;-40
2022/10/29 09:35:57;;;;;;;;;13.00;12.00;;;;;20.65;54.67;101091.94;5077657;27;45508;-39
2022/10/29 09:38:26;;;;;;;;;13.25;12.00;;;;;20.68;54.65;101090.88;5074070;28;45258;-39
2022/10/29 09:40:51;;;;;;;;;18.50;13.50;;;;;20.72;54.33;101102.19;5062575;27;45405;-38
2022/10/29 09:43:27;;;;;;;;;20.00;12.50;;;;;20.76;54.21;101098.38;5070581;27;45663;-40
2022/10/29 09:46:17;;;;;;;;;18.75;14.75;;;;;20.81;53.93;101089.16;5089056;27;45325;-44
2022/10/29 09:48:56;;;;;;;;;21.00;15.00;;;;;20.84;53.93;101082.75;5067318;27;45504;-44
2022/10/29 09:51:33;;;;;;;;;15.00;13.25;;;;;20.89;54.05;101090.44;5063198;27;45525;-42
2022/10/29 09:53:59;;;;;;;;;17.75;12.75;;;;;20.91;53.55;101088.53;5083802;27;47278;-50
2022/10/29 09:56:24;;;;;;;;;14.50;12.75;;;;;20.93;53.75;101076.88;5064102;27;69283;-55
2022/10/29 09:58:55;;;;;;;;;16.00;12.00;;;;;20.96;53.57;101076.63;5079851;27;67331;-41
2022/10/29 10:01:20;;;;;;;;;14.75;12.25;;;;;21.00;53.84;101078.16;5079418;27;45426;-47
2022/10/29 10:03:54;;;;;;;;;16.25;12.25;;;;;21.04;53.49;101082.31;5085825;27;73166;-49
2022/10/29 10:06:20;;;;;;;;;19.00;13.25;;;;;21.11;53.58;101079.28;5070900;28;45269;-48
2022/10/29 10:08:57;;;;;;;;;18.25;15.00;;;;;21.15;53.05;101086.09;5061571;27;45285;-53
2022/10/29 10:11:23;;;;;;;;;15.00;13.00;;;;;21.19;53.04;101085.78;5068755;27;45513;-49
2022/10/29 10:13:58;;;;;;;;;16.75;13.50;;;;;21.22;53.09;101087.41;5100515;27;45800;-56
2022/10/29 10:16:28;;;;;;;;;15.75;12.25;;;;;21.26;52.59;101077.41;5049411;28;45333;-55
2022/10/29 10:18:54;;;;;;;;;16.75;13.50;;;;;21.28;52.61;101073.66;5095439;27;45277;-63
2022/10/29 10:21:30;;;;;;;;;16.75;15.25;;;;;21.31;52.48;101078.78;5078269;28;45706;-62
2022/10/29 10:23:56;;;;;;;;;16.00;14.75;;;;;21.34;52.29;101075.94;5073858;27;45501;-59
2022/10/29 10:26:26;;;;;;;;;17.00;13.75;;;;;21.38;52.19;101079.25;5071534;28;45459;-58
2022/10/29 10:29:15;;;;;;;;;17.00;11.00;;;;;21.43;52.42;101071.81;5078778;27;45262;-58
2022/10/29 10:31:42;;;;;;;;;15.75;11.00;;;;;21.47;52.14;101077.81;5064037;28;45308;-59
2022/10/29 10:34:26;;;;;;;;;19.25;14.00;;;;;21.50;52.42;101067.78;5077751;28;45396;-58
2022/10/29 10:36:54;;;;;;;;;22.00;16.50;;;;;21.55;51.66;101072.81;5079516;27;45715;-58
2022/10/29 10:39:25;;;;;;;;;12.75;10.50;;;;;21.58;51.73;101068.13;5077891;28;45402;-58
2022/10/29 10:41:51;;;;;;;;;20.75;14.00;;;;;21.63;51.93;101064.31;5077904;28;45465;-58
2022/10/29 10:44:18;;;;;;;;;16.00;12.25;;;;;21.67;51.30;101076.44;5067709;28;47010;-58
2022/10/29 10:46:44;;;;;;;;;14.25;11.25;;;;;21.71;51.30;101072.59;5069620;27;46046;-58
2022/10/29 10:49:25;;;;;;;;;15.50;10.00;;;;;21.75;50.89;101066.13;5071342;27;45381;-58
2022/10/29 10:51:52;;;;;;;;;12.00;10.75;;;;;21.79;51.05;101056.94;5066235;28;45504;-57
2022/10/29 10:54:29;;;;;;;;;16.50;12.00;;;;;21.84;50.74;101057.50;5071090;27;46264;-58
2022/10/29 10:57:00;;;;;;;;;13.50;8.50;;;;;21.88;51.23;101050.13;5067768;28;45974;-58
2022/10/29 10:59:41;;;;;;;;;12.50;12.50;;;;;21.91;50.75;101041.94;5071237;28;45538;-59
2022/10/29 11:02:19;;;;;;;;;18.00;13.00;;;;;21.92;51.04;101036.50;5079536;27;45419;-58
2022/10/29 11:04:48;;;;;;;;;13.00;10.25;;;;;21.95;50.79;101036.25;5078044;27;45533;-57
2022/10/29 11:07:15;;;;;;;;;15.50;11.50;;;;;21.99;50.74;101028.91;5074480;27;45414;-56
2022/10/29 11:09:45;;;;;;;;;18.00;11.50;;;;;22.01;50.63;101027.00;5076740;28;55896;-56
2022/10/29 11:12:15;;;;;;;;;15.00;11.50;;;;;22.02;50.17;101019.84;5061279;28;45490;-58
2022/10/29 11:14:47;;;;;;;;;17.25;14.25;;;;;22.05;51.20;101024.97;5070296;27;45497;-58
2022/10/29 11:17:28;;;;;;;;;15.00;12.25;;;;;22.05;50.70;101032.97;5066912;28;45268;-58
2022/10/29 11:19:57;;;;;;;;;24.50;16.00;;;;;22.07;50.22;101039.03;5069628;27;45426;-60